createdAt,value
2018-09-20T00:01:12.391Z,98365.76
2018-09-20T00:03:41.130Z,98361.66
2018-09-20T00:06:09.815Z,98365.50
2018-09-20T00:08:38.667Z,98360.52
2018-09-20T00:11:07.545Z,98363.11
2018-09-20T00:13:36.283Z,98356.63
2018-09-20T00:16:05.242Z,98354.02
2018-09-20T00:18:34.122Z,98355.47
2018-09-20T00:21:02.960Z,98355.59
2018-09-20T00:23:31.740Z,98347.73
2018-09-20T00:26:00.560Z,98349.77
2018-09-20T00:28:29.442Z,98346.49
2018-09-20T00:30:58.643Z,98341.34
2018-09-20T00:33:27.336Z,98343.97
2018-09-20T00:35:56.093Z,98348.40
2018-09-20T00:38:24.790Z,98333.59
2018-09-20T00:40:54.514Z,98340.04
2018-09-20T00:43:23.411Z,98340.30
2018-09-20T00:45:52.151Z,98343.11
2018-09-20T00:48:20.855Z,98341.18
2018-09-20T00:50:49.548Z,98337.20
2018-09-20T00:53:18.333Z,98337.88
2018-09-20T00:55:47.027Z,98342.06
2018-09-20T00:58:15.756Z,98340.36
2018-09-20T01:00:44.475Z,98335.55
2018-09-20T01:03:13.198Z,98332.82
2018-09-20T01:05:41.876Z,98329.19
2018-09-20T01:08:10.692Z,98332.56
2018-09-20T01:10:39.636Z,98332.25
2018-09-20T01:13:08.334Z,98328.92
2018-09-20T01:15:37.366Z,98320.86
2018-09-20T01:18:06.545Z,98322.44
2018-09-20T01:20:35.367Z,98327.64
2018-09-20T01:23:04.113Z,98321.16
2018-09-20T01:25:33.091Z,98322.06
2018-09-20T01:28:01.762Z,98326.84
2018-09-20T01:30:30.771Z,98330.45
2018-09-20T01:33:00.040Z,98336.23
2018-09-20T01:35:28.774Z,98334.19
2018-09-20T01:37:57.462Z,98329.08
2018-09-20T01:40:26.153Z,98329.49
2018-09-20T01:42:54.787Z,98335.36
2018-09-20T01:45:23.762Z,98338.51
2018-09-20T01:47:52.378Z,98331.46
2018-09-20T01:50:21.091Z,98326.47
2018-09-20T01:52:49.810Z,98333.96
2018-09-20T01:55:18.578Z,98325.78
2018-09-20T01:57:47.493Z,98327.22
2018-09-20T02:00:16.145Z,98329.48
2018-09-20T02:02:44.851Z,98329.48
2018-09-20T02:05:13.699Z,98335.28
2018-09-20T02:07:42.458Z,98331.84
2018-09-20T02:10:11.141Z,98333.42
2018-09-20T02:12:39.887Z,98327.73
2018-09-20T02:15:08.763Z,98327.35
2018-09-20T02:17:37.582Z,98327.50
2018-09-20T02:20:06.593Z,98328.15
2018-09-20T02:22:35.604Z,98327.23
2018-09-20T02:25:04.293Z,98329.52
2018-09-20T02:27:33.070Z,98324.69
2018-09-20T02:30:02.165Z,98322.34
2018-09-20T02:32:30.815Z,98326.72
2018-09-20T02:34:59.604Z,98327.18
2018-09-20T02:37:28.277Z,98334.89
2018-09-20T02:39:57.032Z,98331.91
2018-09-20T02:42:25.814Z,98334.63
2018-09-20T02:44:54.530Z,98336.72
2018-09-20T02:47:23.378Z,98338.72
2018-09-20T02:49:52.066Z,98338.03
2018-09-20T02:52:20.868Z,98345.98
2018-09-20T02:54:49.590Z,98347.75
2018-09-20T02:57:18.279Z,98344.33
2018-09-20T02:59:47.107Z,98341.38
2018-09-20T03:02:15.791Z,98335.59
2018-09-20T03:04:44.474Z,98338.42
2018-09-20T03:07:13.166Z,98337.93
2018-09-20T03:09:41.822Z,98338.19
2018-09-20T03:12:10.767Z,98334.56
2018-09-20T03:14:39.511Z,98329.81
2018-09-20T03:17:08.302Z,98324.07
2018-09-20T03:19:37.129Z,98325.31
2018-09-20T03:22:05.923Z,98327.55
2018-09-20T03:24:35.010Z,98321.86
2018-09-20T03:27:03.949Z,98322.77
2018-09-20T03:29:33.003Z,98323.44
2018-09-20T03:32:01.922Z,98317.94
2018-09-20T03:34:30.614Z,98317.98
2018-09-20T03:36:59.297Z,98316.39
2018-09-20T03:39:28.110Z,98318.31
2018-09-20T03:41:56.799Z,98316.95
2018-09-20T03:44:25.499Z,98315.33
2018-09-20T03:46:54.152Z,98324.27
2018-09-20T03:49:22.979Z,98325.25
2018-09-20T03:51:51.796Z,98325.81
2018-09-20T03:54:20.477Z,98328.64
2018-09-20T03:56:49.295Z,98332.22
2018-09-20T03:59:18.099Z,98331.36
2018-09-20T04:01:46.854Z,98341.95
2018-09-20T04:04:15.653Z,98344.22
2018-09-20T04:06:44.374Z,98338.27
2018-09-20T04:09:13.299Z,98333.95
2018-09-20T04:11:42.126Z,98333.63
2018-09-20T04:14:10.870Z,98333.33
2018-09-20T04:16:39.558Z,98342.59
2018-09-20T04:19:08.211Z,98341.56
2018-09-20T04:21:37.074Z,98341.49
2018-09-20T04:24:06.983Z,98340.36
2018-09-20T04:26:35.816Z,98336.11
2018-09-20T04:29:04.650Z,98338.27
2018-09-20T04:31:33.696Z,98338.11
2018-09-20T04:34:02.834Z,98334.92
2018-09-20T04:36:32.033Z,98336.28
2018-09-20T04:39:01.148Z,98341.06
2018-09-20T04:41:29.866Z,98343.12
2018-09-20T04:43:58.533Z,98337.20
2018-09-20T04:46:27.289Z,98341.29
2018-09-20T04:48:56.065Z,98341.16
2018-09-20T04:51:24.773Z,98347.23
2018-09-20T04:53:53.542Z,98345.65
2018-09-20T04:56:22.445Z,98345.75
2018-09-20T04:58:51.117Z,98351.66
2018-09-20T05:01:19.876Z,98348.70
2018-09-20T05:03:49.037Z,98354.94
2018-09-20T05:06:17.809Z,98355.20
2018-09-20T05:08:46.644Z,98357.70
2018-09-20T05:11:15.719Z,98353.68
2018-09-20T05:13:44.473Z,98346.34
2018-09-20T05:16:13.216Z,98347.77
2018-09-20T05:18:41.968Z,98349.86
2018-09-20T05:21:10.674Z,98351.52
2018-09-20T05:23:39.382Z,98347.77
2018-09-20T05:26:08.254Z,98340.97
2018-09-20T05:28:37.030Z,98353.38
2018-09-20T05:31:05.914Z,98349.20
2018-09-20T05:33:34.666Z,98345.18
2018-09-20T05:36:03.499Z,98347.34
2018-09-20T05:38:32.181Z,98347.51
2018-09-20T05:41:00.864Z,98348.70
2018-09-20T05:43:29.605Z,98343.72
2018-09-20T05:45:58.298Z,98344.91
2018-09-20T05:48:27.098Z,98351.05
2018-09-20T05:50:56.011Z,98355.87
2018-09-20T05:53:24.690Z,98357.00
2018-09-20T05:55:53.399Z,98358.39
2018-09-20T05:58:22.278Z,98352.37
2018-09-20T06:00:51.083Z,98357.54
2018-09-20T06:03:19.850Z,98362.94
2018-09-20T06:05:48.686Z,98362.97
2018-09-20T06:08:17.552Z,98371.87
2018-09-20T06:10:46.211Z,98372.20
2018-09-20T06:13:15.085Z,98371.58
2018-09-20T06:15:43.738Z,98375.72
2018-09-20T06:18:12.435Z,98377.25
2018-09-20T06:20:41.192Z,98377.87
2018-09-20T06:23:09.961Z,98379.47
2018-09-20T06:25:39.018Z,98379.77
2018-09-20T06:28:07.689Z,98377.87
2018-09-20T06:30:36.435Z,98380.33
2018-09-20T06:33:05.278Z,98379.56
2018-09-20T06:35:34.407Z,98381.20
2018-09-20T06:38:03.439Z,98378.78
2018-09-20T06:40:32.293Z,98378.11
2018-09-20T06:43:01.044Z,98375.16
2018-09-20T06:45:29.878Z,98376.43
2018-09-20T06:47:58.543Z,98373.16
2018-09-20T06:50:27.635Z,98375.43
2018-09-20T06:52:56.545Z,98379.53
2018-09-20T06:55:25.467Z,98375.31
2018-09-20T06:57:54.289Z,98374.83
2018-09-20T07:00:23.183Z,98374.73
2018-09-20T07:02:52.027Z,98377.50
2018-09-20T07:05:20.744Z,98375.88
2018-09-20T07:07:49.638Z,98374.28
2018-09-20T07:10:18.505Z,98371.63
2018-09-20T07:12:47.193Z,98373.33
2018-09-20T07:15:15.876Z,98371.45
2018-09-20T07:17:44.715Z,98367.86
2018-09-20T07:20:13.580Z,98367.40
2018-09-20T07:22:42.303Z,98366.17
2018-09-20T07:25:11.171Z,98371.42
2018-09-20T07:27:40.585Z,98370.41
2018-09-20T07:30:09.328Z,98376.95
2018-09-20T07:32:38.352Z,98376.27
2018-09-20T07:35:07.633Z,98375.71
2018-09-20T07:37:36.382Z,98384.38
2018-09-20T07:40:05.518Z,98382.22
2018-09-20T07:42:34.188Z,98379.11
2018-09-20T07:45:02.927Z,98380.84
2018-09-20T07:47:31.650Z,98381.96
2018-09-20T07:50:00.447Z,98376.85
2018-09-20T07:52:29.392Z,98381.94
2018-09-20T07:54:58.119Z,98376.52
2018-09-20T07:57:29.583Z,98375.45
2018-09-20T08:00:00.529Z,98376.05
2018-09-20T08:02:29.454Z,98373.84
2018-09-20T08:04:58.442Z,98368.41
2018-09-20T08:07:27.281Z,98367.84
2018-09-20T08:09:56.112Z,98367.73
2018-09-20T08:12:24.773Z,98372.42
2018-09-20T08:14:53.698Z,98365.41
2018-09-20T08:17:22.564Z,98369.95
2018-09-20T08:19:51.244Z,98376.75
2018-09-20T08:22:20.376Z,98377.03
2018-09-20T08:24:49.271Z,98373.83
2018-09-20T08:27:18.056Z,98374.11
2018-09-20T08:29:46.862Z,98369.09
2018-09-20T08:32:15.690Z,98370.13
2018-09-20T08:34:44.378Z,98361.67
2018-09-20T08:37:13.352Z,98365.84
2018-09-20T08:39:41.993Z,98366.55
2018-09-20T08:42:10.780Z,98367.89
2018-09-20T08:44:39.506Z,98365.06
2018-09-20T08:47:08.241Z,98367.06
2018-09-20T08:49:37.060Z,98365.97
2018-09-20T08:52:05.845Z,98364.94
2018-09-20T08:54:34.723Z,98359.22
2018-09-20T08:57:03.773Z,98358.22
2018-09-20T08:59:32.406Z,98350.45
2018-09-20T09:02:01.338Z,98363.38
2018-09-20T09:04:30.325Z,98347.37
2018-09-20T09:06:59.058Z,98355.94
2018-09-20T09:09:28.065Z,98354.66
2018-09-20T09:11:56.879Z,98352.42
2018-09-20T09:14:25.697Z,98350.32
2018-09-20T09:16:54.498Z,98346.60
2018-09-20T09:19:23.194Z,98342.67
2018-09-20T09:21:51.943Z,98343.11
2018-09-20T09:24:20.700Z,98339.90
2018-09-20T09:26:49.458Z,98333.34
2018-09-20T09:29:18.314Z,98333.44
2018-09-20T09:31:46.989Z,98337.73
2018-09-20T09:34:16.216Z,98332.26
2018-09-20T09:36:44.879Z,98327.45
2018-09-20T09:39:14.352Z,98321.43
2018-09-20T09:41:43.895Z,98325.49
2018-09-20T09:44:13.533Z,98321.84
2018-09-20T09:46:42.492Z,98320.33
2018-09-20T09:49:11.178Z,98317.66
2018-09-20T09:51:40.147Z,98317.13
2018-09-20T09:54:09.043Z,98308.54
2018-09-20T09:56:37.744Z,98312.05
2018-09-20T09:59:06.701Z,98308.94
2018-09-20T10:01:35.431Z,98309.53
2018-09-20T10:04:04.390Z,98306.77
2018-09-20T10:06:33.322Z,98307.01
2018-09-20T10:09:02.076Z,98300.95
2018-09-20T10:11:30.760Z,98306.41
2018-09-20T10:13:59.538Z,98296.30
2018-09-20T10:16:28.257Z,98294.41
2018-09-20T10:18:56.953Z,98297.17
2018-09-20T10:21:25.902Z,98298.12
2018-09-20T10:23:54.949Z,98294.35
2018-09-20T10:26:23.774Z,98287.27
2018-09-20T10:28:52.478Z,98288.08
2018-09-20T10:31:21.277Z,98281.38
2018-09-20T10:33:50.231Z,98284.17
2018-09-20T10:36:19.095Z,98272.98
2018-09-20T10:38:47.842Z,98269.27
2018-09-20T10:41:16.539Z,98273.00
2018-09-20T10:43:45.242Z,98270.84
2018-09-20T10:46:13.991Z,98268.27
2018-09-20T10:48:42.770Z,98266.67
2018-09-20T10:51:11.536Z,98258.59
2018-09-20T10:53:40.402Z,98253.66
2018-09-20T10:56:09.193Z,98251.66
2018-09-20T10:58:37.933Z,98243.77
2018-09-20T11:01:06.759Z,98245.75
2018-09-20T11:03:35.563Z,98245.92
2018-09-20T11:06:04.412Z,98234.84
2018-09-20T11:08:33.329Z,98230.12
2018-09-20T11:11:02.432Z,98231.29
2018-09-20T11:13:31.231Z,98238.63
2018-09-20T11:16:00.230Z,98222.03
2018-09-20T11:18:29.103Z,98223.58
2018-09-20T11:20:57.763Z,98225.37
2018-09-20T11:23:26.556Z,98218.39
2018-09-20T11:25:55.767Z,98211.09
2018-09-20T11:28:24.690Z,98207.85
2018-09-20T11:30:53.653Z,98205.41
2018-09-20T11:33:22.445Z,98205.36
2018-09-20T11:35:51.265Z,98197.80
2018-09-20T11:38:20.042Z,98195.66
2018-09-20T11:40:48.813Z,98188.89
2018-09-20T11:43:17.553Z,98191.52
2018-09-20T11:45:46.391Z,98182.77
2018-09-20T11:48:15.106Z,98185.01
2018-09-20T11:50:43.872Z,98180.56
2018-09-20T11:53:12.695Z,98183.30
2018-09-20T11:55:41.394Z,98183.92
2018-09-20T11:58:10.526Z,98177.17
2018-09-20T12:00:39.205Z,98173.16
2018-09-20T12:03:07.946Z,98167.91
2018-09-20T12:05:36.738Z,98170.14
2018-09-20T12:08:05.504Z,98174.20
2018-09-20T12:10:34.298Z,98164.29
2018-09-20T12:13:03.033Z,98156.63
2018-09-20T12:15:31.691Z,98156.48
2018-09-20T12:18:00.368Z,98157.36
2018-09-20T12:20:59.401Z,98144.26
2018-09-20T12:23:28.150Z,98135.02
2018-09-20T12:25:57.057Z,98146.42
2018-09-20T12:28:25.915Z,98136.61
2018-09-20T12:30:54.719Z,98133.58
2018-09-20T12:33:23.390Z,98131.61
2018-09-20T12:35:52.676Z,98125.56
2018-09-20T12:38:21.418Z,98124.34
2018-09-20T12:40:50.067Z,98120.29
2018-09-20T12:43:18.874Z,98114.02
2018-09-20T12:45:47.629Z,98111.65
2018-09-20T12:48:16.417Z,98104.66
2018-09-20T12:50:45.149Z,98116.36
2018-09-20T12:53:14.017Z,98101.98
2018-09-20T12:55:43.028Z,98102.16
2018-09-20T12:58:11.718Z,98096.34
2018-09-20T13:00:40.734Z,98096.36
2018-09-20T13:03:09.478Z,98080.52
2018-09-20T13:05:38.297Z,98081.08
2018-09-20T13:08:07.287Z,98081.59
2018-09-20T13:10:35.950Z,98078.63
2018-09-20T13:13:04.872Z,98072.42
2018-09-20T13:15:33.634Z,98076.97
2018-09-20T13:18:02.331Z,98072.98
2018-09-20T13:20:31.558Z,98074.58
2018-09-20T13:23:00.285Z,98059.56
2018-09-20T13:25:29.010Z,98057.64
2018-09-20T13:27:57.707Z,98062.94
2018-09-20T13:30:26.391Z,98059.20
2018-09-20T13:32:55.276Z,98056.22
2018-09-20T13:35:24.146Z,98056.47
2018-09-20T13:37:52.938Z,98051.61
2018-09-20T13:40:21.646Z,98053.47
2018-09-20T13:42:50.518Z,98039.47
2018-09-20T13:45:19.276Z,98042.67
2018-09-20T13:47:47.958Z,98045.92
2018-09-20T13:50:16.697Z,98042.48
2018-09-20T13:52:45.644Z,98044.16
2018-09-20T13:55:14.694Z,98032.26
2018-09-20T13:57:43.421Z,98033.55
2018-09-20T14:00:12.168Z,98033.84
2018-09-20T14:02:41.023Z,98038.65
2018-09-20T14:05:09.849Z,98024.91
2018-09-20T14:07:38.787Z,98035.61
2018-09-20T14:10:07.722Z,98038.71
2018-09-20T14:12:37.152Z,98022.92
2018-09-20T14:15:06.331Z,98025.34
2018-09-20T14:17:36.319Z,98023.28
2018-09-20T14:20:05.175Z,98019.37
2018-09-20T14:22:34.436Z,98023.26
2018-09-20T14:25:03.766Z,98012.69
2018-09-20T14:27:32.566Z,98015.70
2018-09-20T14:30:01.379Z,98016.41
2018-09-20T14:32:30.042Z,98017.26
2018-09-20T14:34:58.790Z,98017.70
2018-09-20T14:37:27.663Z,98017.88
2018-09-20T14:39:56.486Z,98015.50
2018-09-20T14:42:25.271Z,98013.27
2018-09-20T14:44:54.084Z,98010.77
2018-09-20T14:47:22.774Z,98011.64
2018-09-20T14:49:51.531Z,98004.58
2018-09-20T14:52:20.934Z,98006.47
2018-09-20T14:54:49.695Z,98002.08
2018-09-20T14:57:18.379Z,97995.10
2018-09-20T14:59:47.311Z,98001.09
2018-09-20T15:02:16.092Z,98006.89
2018-09-20T15:04:44.762Z,98002.58
2018-09-20T15:07:14.298Z,98001.21
2018-09-20T15:09:43.035Z,97998.89
2018-09-20T15:12:11.989Z,97997.14
2018-09-20T15:14:40.727Z,97991.56
2018-09-20T15:17:09.503Z,97992.09
2018-09-20T15:19:38.902Z,97994.06
2018-09-20T15:22:08.022Z,97985.07
2018-09-20T15:24:37.023Z,97983.84
2018-09-20T15:27:05.679Z,97982.50
2018-09-20T15:29:34.634Z,97984.44
2018-09-20T15:32:03.585Z,97979.44
2018-09-20T15:34:32.372Z,97977.17
2018-09-20T15:37:01.407Z,97987.30
2018-09-20T15:39:30.157Z,97988.77
2018-09-20T15:41:58.822Z,97978.22
2018-09-20T15:44:27.550Z,97976.83
2018-09-20T15:46:56.414Z,97974.50
2018-09-20T15:49:25.250Z,97976.38
2018-09-20T15:51:53.998Z,97972.40
2018-09-20T15:54:22.673Z,97971.77
2018-09-20T15:56:51.502Z,97972.14
2018-09-20T15:59:21.331Z,97978.69
2018-09-20T16:01:50.424Z,97971.41
2018-09-20T16:04:19.183Z,97972.94
2018-09-20T16:06:47.897Z,97966.01
2018-09-20T16:09:16.613Z,97964.16
2018-09-20T16:11:45.450Z,97970.42
2018-09-20T16:14:14.356Z,97966.44
2018-09-20T16:16:43.007Z,97966.98
2018-09-20T16:19:11.909Z,97963.78
2018-09-20T16:21:40.607Z,97963.44
2018-09-20T16:24:09.421Z,97959.44
2018-09-20T16:26:38.126Z,97961.72
2018-09-20T16:29:24.750Z,97957.09
2018-09-20T16:34:11.909Z,97958.25
2018-09-20T16:36:58.757Z,97950.42
2018-09-20T16:39:29.839Z,97946.13
2018-09-20T16:42:04.738Z,97945.80
2018-09-20T16:44:33.498Z,97951.02
2018-09-20T16:47:02.375Z,97949.48
2018-09-20T16:49:31.131Z,97952.28
2018-09-20T16:51:59.790Z,97943.04
2018-09-20T16:54:28.582Z,97948.57
2018-09-20T16:56:57.405Z,97944.27
2018-09-20T16:59:26.179Z,97938.77
2018-09-20T17:01:54.937Z,97941.77
2018-09-20T17:04:23.614Z,97943.95
2018-09-20T17:06:52.310Z,97945.36
2018-09-20T17:09:21.087Z,97945.00
2018-09-20T17:11:49.765Z,97948.75
2018-09-20T17:14:18.491Z,97950.55
2018-09-20T17:16:47.302Z,97949.76
2018-09-20T17:19:15.969Z,97949.19
2018-09-20T17:21:44.641Z,97943.27
2018-09-20T17:24:13.395Z,97944.28
2018-09-20T17:26:42.111Z,97945.64
2018-09-20T17:29:10.879Z,97949.39
2018-09-20T17:31:39.813Z,97955.69
2018-09-20T17:34:08.840Z,97955.50
2018-09-20T17:36:38.368Z,97948.98
2018-09-20T17:39:11.515Z,97956.48
2018-09-20T17:41:42.623Z,97951.92
2018-09-20T17:44:14.564Z,97953.10
2018-09-20T17:46:43.670Z,97959.03
2018-09-20T17:49:12.587Z,97952.70
2018-09-20T17:51:43.016Z,97956.06
2018-09-20T17:54:12.983Z,97952.67
2018-09-20T17:56:42.439Z,97954.43
2018-09-20T17:59:11.167Z,97955.17
2018-09-20T18:01:39.854Z,97957.94
2018-09-20T18:04:08.570Z,97952.81
2018-09-20T18:06:37.402Z,97962.64
2018-09-20T18:09:09.345Z,97960.28
2018-09-20T18:11:38.455Z,97960.45
2018-09-20T18:14:07.331Z,97957.47
2018-09-20T18:16:36.125Z,97954.91
2018-09-20T18:19:05.086Z,97958.42
2018-09-20T18:21:34.360Z,97962.52
2018-09-20T18:24:03.111Z,97955.44
2018-09-20T18:26:31.858Z,97958.19
2018-09-20T18:29:00.603Z,97955.41
2018-09-20T18:31:29.360Z,97963.04
2018-09-20T18:33:58.106Z,97964.34
2018-09-20T18:36:26.929Z,97956.23
2018-09-20T18:38:55.786Z,97961.52
2018-09-20T18:41:24.590Z,97956.79
2018-09-20T18:43:53.455Z,97959.73
2018-09-20T18:46:22.233Z,97967.55
2018-09-20T18:48:51.034Z,97962.20
2018-09-20T18:51:19.730Z,97962.99
2018-09-20T18:53:48.450Z,97960.23
2018-09-20T18:56:17.161Z,97962.94
2018-09-20T18:58:45.826Z,97959.80
2018-09-20T19:01:14.907Z,97955.81
2018-09-20T19:03:43.603Z,97958.11
2018-09-20T19:06:12.336Z,97955.70
2018-09-20T19:08:41.054Z,97957.84
2018-09-20T19:11:09.797Z,97956.98
2018-09-20T19:13:38.652Z,97956.92
2018-09-20T19:16:07.438Z,97956.66
2018-09-20T19:18:36.077Z,97953.31
2018-09-20T19:21:05.005Z,97951.92
2018-09-20T19:23:33.910Z,97949.69
2018-09-20T19:26:02.698Z,97944.13
2018-09-20T19:28:31.525Z,97945.88
2018-09-20T19:31:00.510Z,97951.72
2018-09-20T19:33:29.314Z,97943.98
2018-09-20T19:35:58.098Z,97947.66
2018-09-20T19:38:26.994Z,97944.70
2018-09-20T19:40:55.691Z,97942.28
2018-09-20T19:43:24.556Z,97940.42
2018-09-20T19:45:53.315Z,97946.02
2018-09-20T19:48:22.041Z,97946.96
2018-09-20T19:50:50.864Z,97943.37
2018-09-20T19:53:19.535Z,97946.03
2018-09-20T19:55:48.283Z,97945.95
2018-09-20T19:58:17.049Z,97941.63
2018-09-20T20:00:45.874Z,97937.30
2018-09-20T20:03:14.934Z,97934.95
2018-09-20T20:05:43.760Z,97942.18
2018-09-20T20:08:12.860Z,97945.66
2018-09-20T20:10:41.609Z,97943.87
2018-09-20T20:13:10.309Z,97947.53
2018-09-20T20:15:39.112Z,97948.40
2018-09-20T20:18:07.823Z,97949.30
2018-09-20T20:20:36.578Z,97946.52
2018-09-20T20:23:05.458Z,97948.48
2018-09-20T20:25:34.515Z,97947.42
2018-09-20T20:28:03.260Z,97947.73
2018-09-20T20:30:32.048Z,97943.45
2018-09-20T20:33:01.328Z,97937.16
2018-09-20T20:35:30.149Z,97933.73
2018-09-20T20:37:58.816Z,97931.98
2018-09-20T20:40:27.523Z,97933.70
2018-09-20T20:42:56.199Z,97930.64
2018-09-20T20:45:25.135Z,97924.12
2018-09-20T20:47:53.852Z,97930.20
2018-09-20T20:50:22.558Z,97925.63
2018-09-20T20:52:51.272Z,97928.09
2018-09-20T20:55:20.174Z,97930.64
2018-09-20T20:57:49.165Z,97921.34
2018-09-20T21:00:18.031Z,97924.18
2018-09-20T21:02:46.795Z,97927.59
2018-09-20T21:05:15.544Z,97927.05
2018-09-20T21:07:44.198Z,97925.02
2018-09-20T21:10:13.338Z,97923.53
2018-09-20T21:12:42.398Z,97921.91
2018-09-20T21:15:11.245Z,97919.59
2018-09-20T21:17:40.225Z,97918.38
2018-09-20T21:20:08.985Z,97915.47
2018-09-20T21:22:37.676Z,97911.03
2018-09-20T21:25:06.516Z,97908.08
2018-09-20T21:27:35.254Z,97910.47
2018-09-20T21:30:04.250Z,97901.95
2018-09-20T21:32:33.160Z,97907.95
2018-09-20T21:35:01.903Z,97907.86
2018-09-20T21:37:31.045Z,97899.63
2018-09-20T21:39:59.906Z,97893.15
2018-09-20T21:42:29.333Z,97893.81
2018-09-20T21:44:58.117Z,97893.77
2018-09-20T21:47:26.954Z,97891.53
2018-09-20T21:49:55.804Z,97886.47
2018-09-20T21:52:25.480Z,97883.89
2018-09-20T21:54:54.162Z,97877.66
2018-09-20T21:57:22.951Z,97878.61
2018-09-20T21:59:51.751Z,97880.90
2018-09-20T22:02:25.790Z,97882.94
2018-09-20T22:04:54.430Z,97879.85
2018-09-20T22:07:23.142Z,97878.78
2018-09-20T22:09:51.791Z,97872.88
2018-09-20T22:12:20.512Z,97879.52
2018-09-20T22:14:49.235Z,97872.53
2018-09-20T22:17:17.988Z,97870.95
2018-09-20T22:19:47.183Z,97867.39
2018-09-20T22:22:15.815Z,97865.23
2018-09-20T22:24:44.458Z,97865.55
2018-09-20T22:27:13.294Z,97863.62
2018-09-20T22:29:41.942Z,97857.65
2018-09-20T22:32:10.577Z,97859.28
2018-09-20T22:34:39.846Z,97857.70
2018-09-20T22:37:08.510Z,97848.64
2018-09-20T22:39:37.325Z,97847.98
2018-09-20T22:42:06.115Z,97849.14
2018-09-20T22:44:34.751Z,97849.05
2018-09-20T22:47:03.475Z,97838.84
2018-09-20T22:49:32.169Z,97845.31
2018-09-20T22:52:00.862Z,97838.68
2018-09-20T22:54:29.602Z,97833.78
2018-09-20T22:56:58.284Z,97832.33
2018-09-20T22:59:27.002Z,97829.03
2018-09-20T23:01:55.773Z,97833.79
2018-09-20T23:04:24.442Z,97832.37
2018-09-20T23:06:53.162Z,97834.37
2018-09-20T23:09:21.976Z,97835.11
2018-09-20T23:11:50.730Z,97831.42
2018-09-20T23:14:19.578Z,97831.91
2018-09-20T23:16:48.339Z,97830.27
2018-09-20T23:19:16.989Z,97832.37
2018-09-20T23:21:45.673Z,97836.75
2018-09-20T23:24:14.388Z,97835.96
2018-09-20T23:26:43.014Z,97829.91
2018-09-20T23:29:13.186Z,97826.17
2018-09-20T23:31:41.893Z,97818.45
2018-09-20T23:34:10.866Z,97811.48
2018-09-20T23:36:40.610Z,97816.81
2018-09-20T23:39:12.495Z,97813.41
2018-09-20T23:41:41.790Z,97813.28
2018-09-20T23:44:10.454Z,97808.88
2018-09-20T23:46:39.741Z,97808.67
2018-09-20T23:49:08.623Z,97807.45
2018-09-20T23:51:37.285Z,97802.05
2018-09-20T23:54:06.317Z,97800.53
2018-09-20T23:56:35.127Z,97805.70
2018-09-20T23:59:03.870Z,97804.06
